createdAt,value
2023-05-19T00:01:31.150Z,11.88
2023-05-19T00:04:02.933Z,11.86
2023-05-19T00:06:32.705Z,11.83
2023-05-19T00:09:04.556Z,11.86
2023-05-19T00:11:32.421Z,11.83
2023-05-19T00:14:00.733Z,11.83
2023-05-19T00:16:29.349Z,11.81
2023-05-19T00:19:04.081Z,11.83
2023-05-19T00:21:32.282Z,11.82
2023-05-19T00:24:00.223Z,11.75
2023-05-19T00:26:28.242Z,11.74
2023-05-19T00:29:02.048Z,11.74
2023-05-19T00:31:30.094Z,11.69
2023-05-19T00:33:57.870Z,11.71
2023-05-19T00:36:26.399Z,11.69
2023-05-19T00:38:54.426Z,11.65
2023-05-19T00:41:22.779Z,11.62
2023-05-19T00:43:51.217Z,11.65
2023-05-19T00:46:19.363Z,11.67
2023-05-19T00:48:46.786Z,11.69
2023-05-19T00:51:17.162Z,11.69
2023-05-19T00:53:49.321Z,11.69
2023-05-19T00:56:18.421Z,11.69
2023-05-19T00:58:46.874Z,11.68
2023-05-19T01:01:17.303Z,11.69
2023-05-19T01:03:47.131Z,11.69
2023-05-19T01:06:15.104Z,11.65
2023-05-19T01:08:42.914Z,11.68
2023-05-19T01:11:10.850Z,11.67
2023-05-19T01:13:40.331Z,11.64
2023-05-19T01:16:33.866Z,11.62
2023-05-19T01:19:22.015Z,11.62
2023-05-19T01:21:52.026Z,11.65
2023-05-19T01:24:57.730Z,11.64
2023-05-19T01:28:22.602Z,11.68
2023-05-19T01:30:56.171Z,11.64
2023-05-19T01:33:25.174Z,11.67
2023-05-19T01:35:56.066Z,11.65
2023-05-19T01:38:28.669Z,11.64
2023-05-19T01:40:58.930Z,11.65
2023-05-19T01:43:28.089Z,11.68
2023-05-19T01:45:58.889Z,11.68
2023-05-19T01:48:28.892Z,11.67
2023-05-19T01:50:59.001Z,11.68
2023-05-19T01:53:26.702Z,11.64
2023-05-19T01:55:56.979Z,11.67
2023-05-19T01:58:36.792Z,11.67
2023-05-19T02:01:33.567Z,11.65
2023-05-19T02:04:06.254Z,11.68
2023-05-19T02:06:52.912Z,11.67
2023-05-19T02:10:04.923Z,11.65
2023-05-19T02:12:37.733Z,11.67
2023-05-19T02:15:17.934Z,11.65
2023-05-19T02:17:50.727Z,11.60
2023-05-19T02:20:18.994Z,11.60
2023-05-19T02:22:47.218Z,11.52
2023-05-19T02:25:15.050Z,11.48
2023-05-19T02:27:43.232Z,11.45
2023-05-19T02:30:11.097Z,11.45
2023-05-19T02:32:38.737Z,11.48
2023-05-19T02:35:07.048Z,11.47
2023-05-19T02:37:39.059Z,11.44
2023-05-19T02:40:07.959Z,11.48
2023-05-19T02:42:35.758Z,11.48
2023-05-19T02:45:03.648Z,11.51
2023-05-19T02:47:31.383Z,11.52
2023-05-19T02:50:00.846Z,11.52
2023-05-19T02:52:28.717Z,11.55
2023-05-19T02:54:56.327Z,11.58
2023-05-19T02:57:24.207Z,11.57
2023-05-19T02:59:52.007Z,11.61
2023-05-19T03:02:19.732Z,11.62
2023-05-19T03:04:47.339Z,11.61
2023-05-19T03:07:15.653Z,11.64
2023-05-19T03:09:43.195Z,11.64
2023-05-19T03:12:10.812Z,11.67
2023-05-19T03:14:38.794Z,11.64
2023-05-19T03:17:10.369Z,11.68
2023-05-19T03:19:38.101Z,11.74
2023-05-19T03:22:05.755Z,11.77
2023-05-19T03:24:35.168Z,11.78
2023-05-19T03:27:05.922Z,11.83
2023-05-19T03:29:34.008Z,11.90
2023-05-19T03:32:01.776Z,11.92
2023-05-19T03:34:30.147Z,12.00
2023-05-19T03:36:58.735Z,12.03
2023-05-19T03:39:26.501Z,12.12
2023-05-19T03:41:54.191Z,12.15
2023-05-19T03:44:21.865Z,12.15
2023-05-19T03:46:49.606Z,12.20
2023-05-19T03:49:17.228Z,12.29
2023-05-19T03:52:03.494Z,12.37
2023-05-19T03:54:57.799Z,12.50
2023-05-19T03:57:26.149Z,12.57
2023-05-19T03:59:54.542Z,12.65
2023-05-19T04:02:22.376Z,12.75
2023-05-19T04:04:51.279Z,12.87
2023-05-19T04:07:18.973Z,12.95
2023-05-19T04:09:48.688Z,13.13
2023-05-19T04:12:16.245Z,13.27
2023-05-19T04:14:43.867Z,13.32
2023-05-19T04:17:11.878Z,13.38
2023-05-19T04:19:39.638Z,13.39
2023-05-19T04:22:07.335Z,13.39
2023-05-19T04:24:34.869Z,13.38
2023-05-19T04:27:04.771Z,13.36
2023-05-19T04:29:32.705Z,13.30
2023-05-19T04:32:01.041Z,13.30
2023-05-19T04:34:29.035Z,13.27
2023-05-19T04:36:57.495Z,13.29
2023-05-19T04:39:25.729Z,13.38
2023-05-19T04:41:54.242Z,13.43
2023-05-19T04:44:22.107Z,13.50
2023-05-19T04:46:54.474Z,13.54
2023-05-19T04:49:24.478Z,13.54
2023-05-19T04:51:55.569Z,13.61
2023-05-19T04:54:26.765Z,13.67
2023-05-19T04:56:55.029Z,13.77
2023-05-19T04:59:27.521Z,13.84
2023-05-19T05:01:56.177Z,13.75
2023-05-19T05:04:25.048Z,13.88
2023-05-19T05:06:52.661Z,14.02
2023-05-19T05:09:21.688Z,14.15
2023-05-19T05:11:51.719Z,14.18
2023-05-19T05:14:20.611Z,14.19
2023-05-19T05:16:48.925Z,14.18
2023-05-19T05:19:22.351Z,14.26
2023-05-19T05:21:50.781Z,14.29
2023-05-19T05:24:19.034Z,14.38
2023-05-19T05:26:52.470Z,14.53
2023-05-19T05:29:21.022Z,14.69
2023-05-19T05:31:48.595Z,14.75
2023-05-19T05:34:17.694Z,14.80
2023-05-19T05:36:45.669Z,14.83
2023-05-19T05:39:13.890Z,14.81
2023-05-19T05:41:43.221Z,14.72
2023-05-19T05:44:12.789Z,14.69
2023-05-19T05:46:43.066Z,14.65
2023-05-19T05:49:12.577Z,14.69
2023-05-19T05:51:54.236Z,14.79
2023-05-19T05:54:33.045Z,14.65
2023-05-19T05:57:02.550Z,14.55
2023-05-19T05:59:30.466Z,14.56
2023-05-19T06:01:58.007Z,14.60
2023-05-19T06:04:25.938Z,14.75
2023-05-19T06:07:00.927Z,14.76
2023-05-19T06:09:32.959Z,14.73
2023-05-19T06:12:01.703Z,14.70
2023-05-19T06:14:34.644Z,14.62
2023-05-19T06:17:11.381Z,14.50
2023-05-19T06:19:39.162Z,14.55
2023-05-19T06:22:06.772Z,14.57
2023-05-19T06:24:34.719Z,14.65
2023-05-19T06:27:02.777Z,14.83
2023-05-19T06:29:30.551Z,14.94
2023-05-19T06:32:02.543Z,15.00
2023-05-19T06:34:31.297Z,15.01
2023-05-19T06:37:02.357Z,15.00
2023-05-19T06:39:31.008Z,14.96
2023-05-19T06:41:58.921Z,14.96
2023-05-19T06:45:01.928Z,15.07
2023-05-19T06:47:29.917Z,15.25
2023-05-19T06:49:58.007Z,15.39
2023-05-19T06:52:30.090Z,15.53
2023-05-19T06:54:57.744Z,15.74
2023-05-19T06:57:25.326Z,15.87
2023-05-19T06:59:52.959Z,16.04
2023-05-19T07:02:20.700Z,16.16
2023-05-19T07:04:48.785Z,16.18
2023-05-19T07:07:17.574Z,16.17
2023-05-19T07:09:45.848Z,16.13
2023-05-19T07:12:13.843Z,16.13
2023-05-19T07:14:41.432Z,16.31
2023-05-19T07:17:09.385Z,16.78
2023-05-19T07:19:39.779Z,17.37
2023-05-19T07:22:07.462Z,17.98
2023-05-19T07:24:34.951Z,18.54
2023-05-19T07:27:02.724Z,19.15
2023-05-19T07:29:30.726Z,19.78
2023-05-19T07:31:58.837Z,20.12
2023-05-19T07:34:26.757Z,20.08
2023-05-19T07:36:54.543Z,20.43
2023-05-19T07:39:23.720Z,20.59
2023-05-19T07:41:55.620Z,20.89
2023-05-19T07:44:23.336Z,21.68
2023-05-19T07:46:51.086Z,22.85
2023-05-19T07:49:18.761Z,23.67
2023-05-19T07:51:46.657Z,24.40
2023-05-19T07:54:14.618Z,23.95
2023-05-19T07:56:42.182Z,23.53
2023-05-19T07:59:09.872Z,22.85
2023-05-19T08:01:37.612Z,22.36
2023-05-19T08:04:05.617Z,22.07
2023-05-19T08:06:33.703Z,21.65
2023-05-19T08:09:02.136Z,21.32
2023-05-19T08:11:30.838Z,21.18
2023-05-19T08:14:00.145Z,20.76
2023-05-19T08:16:29.011Z,20.93
2023-05-19T08:18:57.232Z,20.90
2023-05-19T08:21:25.342Z,20.25
2023-05-19T08:23:53.562Z,19.83
2023-05-19T08:26:21.768Z,19.85
2023-05-19T08:28:50.076Z,19.73
2023-05-19T08:31:18.501Z,19.59
2023-05-19T08:33:46.138Z,19.15
2023-05-19T08:36:13.864Z,18.97
2023-05-19T08:38:41.550Z,18.77
2023-05-19T08:41:09.307Z,18.65
2023-05-19T08:43:37.471Z,18.67
2023-05-19T08:46:06.378Z,18.78
2023-05-19T08:48:37.504Z,19.07
2023-05-19T08:51:35.591Z,19.56
2023-05-19T08:54:15.899Z,20.20
2023-05-19T08:56:45.955Z,20.56
2023-05-19T08:59:18.535Z,21.30
2023-05-19T09:01:47.231Z,21.75
2023-05-19T09:04:17.394Z,22.89
2023-05-19T09:06:45.573Z,23.75
2023-05-19T09:09:13.703Z,24.33
2023-05-19T09:11:41.377Z,23.43
2023-05-19T09:14:08.921Z,22.88
2023-05-19T09:16:36.790Z,22.81
2023-05-19T09:19:04.676Z,22.67
2023-05-19T09:21:33.093Z,22.12
2023-05-19T09:24:08.582Z,22.10
2023-05-19T09:26:41.969Z,21.86
2023-05-19T09:29:16.896Z,21.99
2023-05-19T09:32:06.618Z,21.69
2023-05-19T09:34:34.681Z,21.76
2023-05-19T09:37:02.392Z,21.82
2023-05-19T09:39:30.883Z,21.76
2023-05-19T09:41:58.926Z,21.83
2023-05-19T09:44:31.544Z,21.92
2023-05-19T09:47:00.093Z,21.97
2023-05-19T09:49:30.551Z,21.83
2023-05-19T09:52:02.379Z,21.95
2023-05-19T09:54:32.624Z,22.12
2023-05-19T09:57:03.593Z,22.34
2023-05-19T09:59:33.825Z,22.50
2023-05-19T10:02:02.947Z,22.39
2023-05-19T10:04:32.126Z,22.78
2023-05-19T10:07:05.908Z,23.03
2023-05-19T10:09:36.619Z,23.26
2023-05-19T10:12:05.720Z,23.88
2023-05-19T10:14:33.451Z,24.42
2023-05-19T10:17:01.010Z,24.66
2023-05-19T10:19:31.582Z,24.95
2023-05-19T10:21:59.850Z,25.61
2023-05-19T10:24:27.706Z,25.43
2023-05-19T10:27:05.871Z,24.97
2023-05-19T10:29:51.115Z,24.69
2023-05-19T10:32:27.018Z,24.94
2023-05-19T10:35:44.187Z,25.10
2023-05-19T10:38:48.824Z,25.62
2023-05-19T10:41:59.790Z,25.45
2023-05-19T10:44:36.142Z,26.17
2023-05-19T10:47:07.670Z,26.81
2023-05-19T10:49:36.860Z,26.96
2023-05-19T10:52:21.593Z,25.70
2023-05-19T10:54:54.545Z,25.12
2023-05-19T10:57:31.862Z,25.00
2023-05-19T11:00:11.609Z,25.39
2023-05-19T11:02:44.032Z,25.66
2023-05-19T11:05:20.018Z,24.55
2023-05-19T11:08:08.281Z,25.93
2023-05-19T11:10:36.035Z,26.89
2023-05-19T11:13:06.628Z,27.30
2023-05-19T11:15:38.633Z,26.92
2023-05-19T11:18:06.664Z,26.47
2023-05-19T11:20:39.477Z,26.88
2023-05-19T11:23:15.188Z,27.69
2023-05-19T11:25:51.658Z,27.80
2023-05-19T11:28:26.246Z,28.13
2023-05-19T11:30:59.338Z,28.54
2023-05-19T11:33:27.408Z,28.67
2023-05-19T11:36:00.336Z,28.88
2023-05-19T11:38:30.273Z,27.55
2023-05-19T11:40:58.817Z,26.38
2023-05-19T11:43:26.904Z,25.80
2023-05-19T11:45:56.028Z,25.08
2023-05-19T11:48:26.428Z,24.70
2023-05-19T11:50:54.257Z,25.25
2023-05-19T11:53:23.281Z,25.59
2023-05-19T11:55:51.102Z,25.66
2023-05-19T11:58:27.522Z,24.55
2023-05-19T12:00:55.260Z,24.56
2023-05-19T12:03:28.956Z,24.86
2023-05-19T12:05:57.073Z,24.92
2023-05-19T12:08:27.575Z,24.91
2023-05-19T12:10:56.334Z,24.33
2023-05-19T12:13:24.084Z,23.84
2023-05-19T12:15:52.737Z,23.15
2023-05-19T12:18:21.058Z,23.50
2023-05-19T12:20:48.991Z,24.14
2023-05-19T12:23:17.021Z,24.35
2023-05-19T12:25:44.740Z,23.98
2023-05-19T12:28:12.410Z,23.13
2023-05-19T12:30:40.196Z,23.12
2023-05-19T12:33:09.724Z,23.70
2023-05-19T12:35:38.052Z,23.64
2023-05-19T12:38:07.524Z,23.47
2023-05-19T12:40:37.757Z,23.64
2023-05-19T12:43:06.963Z,23.75
2023-05-19T12:45:39.853Z,23.81
2023-05-19T12:48:16.161Z,23.30
2023-05-19T12:50:45.216Z,23.27
2023-05-19T12:53:15.585Z,23.70
2023-05-19T12:55:45.404Z,24.09
2023-05-19T12:58:13.589Z,24.36
2023-05-19T13:00:47.907Z,24.67
2023-05-19T13:03:22.343Z,25.37
2023-05-19T13:05:51.496Z,26.24
2023-05-19T13:08:23.301Z,26.07
2023-05-19T13:10:51.134Z,25.61
2023-05-19T13:13:19.431Z,24.97
2023-05-19T13:15:50.931Z,24.53
2023-05-19T13:18:18.940Z,24.43
2023-05-19T13:20:49.206Z,24.67
2023-05-19T13:23:17.374Z,24.48
2023-05-19T13:25:45.510Z,24.29
2023-05-19T13:28:13.240Z,23.81
2023-05-19T13:30:43.360Z,23.68
2023-05-19T13:33:12.005Z,23.95
2023-05-19T13:35:40.222Z,24.18
2023-05-19T13:38:10.467Z,24.21
2023-05-19T13:40:39.816Z,23.88
2023-05-19T13:43:08.798Z,23.95
2023-05-19T13:45:36.924Z,24.14
2023-05-19T13:48:07.362Z,23.88
2023-05-19T13:50:35.179Z,23.22
2023-05-19T13:53:03.701Z,23.36
2023-05-19T13:55:32.751Z,23.57
2023-05-19T13:58:00.455Z,23.70
2023-05-19T14:00:28.080Z,23.97
2023-05-19T14:02:56.009Z,24.19
2023-05-19T14:05:24.749Z,24.48
2023-05-19T14:07:52.382Z,24.79
2023-05-19T14:10:20.092Z,25.01
2023-05-19T14:13:14.056Z,25.65
2023-05-19T14:15:37.946Z,25.43
2023-05-19T14:18:07.189Z,24.97
2023-05-19T14:20:35.237Z,24.64
2023-05-19T14:23:03.275Z,24.04
2023-05-19T14:25:30.926Z,23.85
2023-05-19T14:27:58.597Z,23.27
2023-05-19T14:30:26.049Z,23.47
2023-05-19T14:32:53.809Z,23.47
2023-05-19T14:35:21.840Z,23.42
2023-05-19T14:37:51.627Z,23.29
2023-05-19T14:40:20.717Z,23.09
2023-05-19T14:42:48.254Z,22.62
2023-05-19T14:45:15.906Z,22.43
2023-05-19T14:47:43.624Z,22.27
2023-05-19T14:50:11.793Z,22.27
2023-05-19T14:52:39.428Z,22.20
2023-05-19T14:55:07.742Z,22.27
2023-05-19T14:57:35.518Z,22.14
2023-05-19T15:00:03.355Z,22.12
2023-05-19T15:02:30.802Z,22.04
2023-05-19T15:04:58.851Z,21.99
2023-05-19T15:07:27.129Z,22.14
2023-05-19T15:09:54.836Z,21.96
2023-05-19T15:12:22.674Z,21.44
2023-05-19T15:14:50.489Z,21.62
2023-05-19T15:17:18.155Z,21.95
2023-05-19T15:19:45.999Z,21.93
2023-05-19T15:22:13.707Z,21.65
2023-05-19T15:24:41.360Z,21.54
2023-05-19T15:27:09.326Z,21.49
2023-05-19T15:29:37.030Z,21.48
2023-05-19T15:32:04.717Z,21.41
2023-05-19T15:34:32.272Z,21.26
2023-05-19T15:37:03.334Z,21.23
2023-05-19T15:39:31.433Z,21.31
2023-05-19T15:41:59.704Z,21.06
2023-05-19T15:44:29.032Z,21.01
2023-05-19T15:46:56.976Z,20.93
2023-05-19T15:49:25.336Z,21.12
2023-05-19T15:51:52.887Z,21.14
2023-05-19T15:54:20.664Z,21.03
2023-05-19T15:56:48.429Z,21.10
2023-05-19T15:59:16.122Z,20.96
2023-05-19T16:01:43.835Z,20.90
2023-05-19T16:04:11.567Z,20.46
2023-05-19T16:06:39.206Z,20.22
2023-05-19T16:09:07.001Z,20.60
2023-05-19T16:11:34.632Z,21.28
2023-05-19T16:14:02.346Z,22.00
2023-05-19T16:16:30.573Z,22.25
2023-05-19T16:19:01.255Z,21.93
2023-05-19T16:21:28.997Z,21.72
2023-05-19T16:23:56.651Z,21.30
2023-05-19T16:26:24.352Z,20.77
2023-05-19T16:28:51.898Z,20.21
2023-05-19T16:31:19.467Z,19.81
2023-05-19T16:33:47.217Z,19.56
2023-05-19T16:36:14.865Z,19.60
2023-05-19T16:38:42.428Z,19.76
2023-05-19T16:41:12.859Z,20.15
2023-05-19T16:43:40.487Z,20.59
2023-05-19T16:46:10.025Z,20.72
2023-05-19T16:48:38.034Z,20.60
2023-05-19T16:51:05.410Z,20.57
2023-05-19T16:53:32.855Z,20.77
2023-05-19T16:56:00.714Z,20.99
2023-05-19T16:58:29.565Z,20.79
2023-05-19T17:00:58.827Z,20.63
2023-05-19T17:03:26.668Z,20.42
2023-05-19T17:05:54.266Z,20.32
2023-05-19T17:08:21.845Z,20.42
2023-05-19T17:10:49.651Z,20.29
2023-05-19T17:13:17.263Z,20.31
2023-05-19T17:15:44.797Z,20.12
2023-05-19T17:18:12.758Z,20.00
2023-05-19T17:20:41.624Z,19.77
2023-05-19T17:23:09.468Z,19.47
2023-05-19T17:25:37.192Z,19.18
2023-05-19T17:28:04.797Z,18.89
2023-05-19T17:30:33.012Z,18.67
2023-05-19T17:33:01.073Z,18.39
2023-05-19T17:35:28.796Z,18.13
2023-05-19T17:37:57.916Z,17.89
2023-05-19T17:40:25.530Z,17.63
2023-05-19T17:42:53.239Z,17.37
2023-05-19T17:45:20.946Z,17.22
2023-05-19T17:47:48.553Z,17.06
2023-05-19T17:50:16.284Z,16.86
2023-05-19T17:52:44.362Z,16.73
2023-05-19T17:55:12.969Z,16.57
2023-05-19T17:57:45.203Z,16.40
2023-05-19T18:00:13.617Z,16.24
2023-05-19T18:02:41.739Z,16.11
2023-05-19T18:05:09.977Z,15.96
2023-05-19T18:07:41.821Z,15.83
2023-05-19T18:10:10.790Z,15.70
2023-05-19T18:12:38.294Z,15.61
2023-05-19T18:15:06.753Z,15.52
2023-05-19T18:17:34.409Z,15.49
2023-05-19T18:20:02.622Z,15.59
2023-05-19T18:22:30.490Z,15.73
2023-05-19T18:24:58.176Z,15.85
2023-05-19T18:27:27.843Z,15.96
2023-05-19T18:29:55.419Z,16.06
2023-05-19T18:32:23.071Z,16.17
2023-05-19T18:34:51.033Z,16.22
2023-05-19T18:37:18.652Z,16.31
2023-05-19T18:39:47.483Z,16.35
2023-05-19T18:42:15.039Z,16.45
2023-05-19T18:44:46.859Z,16.47
2023-05-19T18:47:22.793Z,16.45
2023-05-19T18:49:50.594Z,16.41
2023-05-19T18:52:19.196Z,16.31
2023-05-19T18:54:47.266Z,16.22
2023-05-19T18:57:15.218Z,16.16
2023-05-19T18:59:43.045Z,16.16
2023-05-19T19:02:10.679Z,16.13
2023-05-19T19:04:38.390Z,16.09
2023-05-19T19:07:06.177Z,15.99
2023-05-19T19:09:34.333Z,15.83
2023-05-19T19:12:02.103Z,15.74
2023-05-19T19:14:29.973Z,15.61
2023-05-19T19:16:57.549Z,15.55
2023-05-19T19:19:28.404Z,15.49
2023-05-19T19:21:56.399Z,15.44
2023-05-19T19:24:23.974Z,15.38
2023-05-19T19:26:51.594Z,15.32
2023-05-19T19:29:21.784Z,15.28
2023-05-19T19:31:49.693Z,15.25
2023-05-19T19:34:20.264Z,15.20
2023-05-19T19:36:48.283Z,15.14
2023-05-19T19:39:15.791Z,15.05
2023-05-19T19:41:43.509Z,15.01
2023-05-19T19:44:11.130Z,14.97
2023-05-19T19:46:38.750Z,14.90
2023-05-19T19:49:06.853Z,14.84
2023-05-19T19:51:34.648Z,14.75
2023-05-19T19:54:02.288Z,14.66
2023-05-19T19:56:30.152Z,14.62
2023-05-19T19:58:59.042Z,14.59
2023-05-19T20:01:27.969Z,14.55
2023-05-19T20:03:57.786Z,14.48
2023-05-19T20:06:25.460Z,14.43
2023-05-19T20:08:53.185Z,14.33
2023-05-19T20:11:23.002Z,14.32
2023-05-19T20:13:50.825Z,14.24
2023-05-19T20:16:19.009Z,14.22
2023-05-19T20:18:49.030Z,14.19
2023-05-19T20:21:16.818Z,14.19
2023-05-19T20:23:44.592Z,14.17
2023-05-19T20:26:13.484Z,14.18
2023-05-19T20:28:41.574Z,14.14
2023-05-19T20:31:10.179Z,14.11
2023-05-19T20:33:37.561Z,14.09
2023-05-19T20:36:08.228Z,14.08
2023-05-19T20:38:36.141Z,14.04
2023-05-19T20:41:04.029Z,14.01
2023-05-19T20:43:33.137Z,13.97
2023-05-19T20:46:01.780Z,13.98
2023-05-19T20:48:30.840Z,13.97
2023-05-19T20:50:58.509Z,13.92
2023-05-19T20:53:26.462Z,13.90
2023-05-19T20:55:54.036Z,13.78
2023-05-19T20:58:21.926Z,13.70
2023-05-19T21:00:56.970Z,13.56
2023-05-19T21:03:27.145Z,13.47
2023-05-19T21:05:55.671Z,13.40
2023-05-19T21:08:24.166Z,13.30
2023-05-19T21:10:51.758Z,13.29
2023-05-19T21:13:19.398Z,13.32
2023-05-19T21:15:50.335Z,13.25
2023-05-19T21:18:18.059Z,13.22
2023-05-19T21:20:46.908Z,13.12
2023-05-19T21:23:14.489Z,13.06
2023-05-19T21:25:43.432Z,12.99
2023-05-19T21:28:12.931Z,12.94
2023-05-19T21:30:40.648Z,12.85
2023-05-19T21:33:08.524Z,12.84
2023-05-19T21:35:37.929Z,12.84
2023-05-19T21:38:15.694Z,12.78
2023-05-19T21:40:51.048Z,12.73
2023-05-19T21:43:19.520Z,12.65
2023-05-19T21:45:47.206Z,12.69
2023-05-19T21:48:14.737Z,12.74
2023-05-19T21:50:42.421Z,12.65
2023-05-19T21:53:10.076Z,12.57
2023-05-19T21:55:37.723Z,12.57
2023-05-19T21:58:05.238Z,12.56
2023-05-19T22:00:32.962Z,12.53
2023-05-19T22:03:00.786Z,12.51
2023-05-19T22:05:32.161Z,12.50
2023-05-19T22:07:59.926Z,12.48
2023-05-19T22:10:27.700Z,12.46
2023-05-19T22:12:55.527Z,12.43
2023-05-19T22:15:23.225Z,12.44
2023-05-19T22:17:51.196Z,12.43
2023-05-19T22:20:18.832Z,12.44
2023-05-19T22:22:46.331Z,12.44
2023-05-19T22:25:13.906Z,12.50
2023-05-19T22:27:41.406Z,12.54
2023-05-19T22:30:09.214Z,12.56
2023-05-19T22:32:36.724Z,12.57
2023-05-19T22:35:06.445Z,12.53
2023-05-19T22:37:34.223Z,12.53
2023-05-19T22:40:01.735Z,12.51
2023-05-19T22:42:29.186Z,12.53
2023-05-19T22:44:56.801Z,12.60
2023-05-19T22:47:24.396Z,12.64
2023-05-19T22:49:52.470Z,12.69
2023-05-19T22:52:20.897Z,12.74
2023-05-19T22:54:48.640Z,12.75
2023-05-19T22:57:16.849Z,12.77
2023-05-19T22:59:44.316Z,12.84
2023-05-19T23:02:11.830Z,12.84
2023-05-19T23:04:39.399Z,12.88
2023-05-19T23:07:07.007Z,12.87
2023-05-19T23:09:34.487Z,12.84
2023-05-19T23:12:01.975Z,12.74
2023-05-19T23:14:29.811Z,12.74
2023-05-19T23:16:57.593Z,12.71
2023-05-19T23:19:25.382Z,12.69
2023-05-19T23:21:53.051Z,12.57
2023-05-19T23:24:20.670Z,12.44
2023-05-19T23:26:48.179Z,12.34
2023-05-19T23:29:16.099Z,12.29
2023-05-19T23:31:44.789Z,12.26
2023-05-19T23:34:12.399Z,12.23
2023-05-19T23:36:40.065Z,12.23
2023-05-19T23:39:07.729Z,12.23
2023-05-19T23:41:35.301Z,12.23
2023-05-19T23:44:02.946Z,12.23
2023-05-19T23:46:30.774Z,12.22
2023-05-19T23:48:58.333Z,12.19
2023-05-19T23:51:26.217Z,12.20
2023-05-19T23:53:53.635Z,12.20
2023-05-19T23:56:21.735Z,12.23
2023-05-19T23:58:49.270Z,12.22
